createdAt,value
2023-03-14T00:00:06.819Z,100.00
2023-03-14T00:02:35.608Z,100.00
2023-03-14T00:05:07.540Z,100.00
2023-03-14T00:07:37.486Z,100.00
2023-03-14T00:10:07.034Z,100.00
2023-03-14T00:12:35.825Z,100.00
2023-03-14T00:15:07.994Z,100.00
2023-03-14T00:17:37.281Z,100.00
2023-03-14T00:20:09.189Z,100.00
2023-03-14T00:22:38.087Z,100.00
2023-03-14T00:25:08.431Z,100.00
2023-03-14T00:27:37.420Z,100.00
2023-03-14T00:30:10.448Z,100.00
2023-03-14T00:32:39.242Z,100.00
2023-03-14T00:35:08.481Z,100.00
2023-03-14T00:37:37.374Z,100.00
2023-03-14T00:40:09.373Z,100.00
2023-03-14T00:42:38.156Z,100.00
2023-03-14T00:45:09.879Z,100.00
2023-03-14T00:47:38.571Z,100.00
2023-03-14T00:50:08.459Z,100.00
2023-03-14T00:52:37.198Z,100.00
2023-03-14T00:55:06.806Z,100.00
2023-03-14T00:57:35.662Z,99.15
2023-03-14T01:00:07.057Z,99.37
2023-03-14T01:02:37.201Z,99.29
2023-03-14T01:05:06.481Z,98.92
2023-03-14T01:07:35.439Z,98.22
2023-03-14T01:10:04.554Z,97.87
2023-03-14T01:12:33.193Z,98.32
2023-03-14T01:15:01.972Z,97.77
2023-03-14T01:17:30.725Z,96.99
2023-03-14T01:20:02.461Z,97.32
2023-03-14T01:22:31.244Z,98.46
2023-03-14T01:24:59.981Z,99.14
2023-03-14T01:27:28.733Z,99.11
2023-03-14T01:29:57.286Z,99.71
2023-03-14T01:32:26.443Z,100.00
2023-03-14T01:34:55.540Z,99.27
2023-03-14T01:37:25.765Z,98.52
2023-03-14T01:39:54.481Z,98.16
2023-03-14T01:42:23.547Z,97.02
2023-03-14T01:44:53.897Z,97.49
2023-03-14T01:47:23.748Z,97.18
2023-03-14T01:49:55.272Z,97.55
2023-03-14T01:52:27.560Z,97.34
2023-03-14T01:54:57.993Z,97.12
2023-03-14T01:57:29.665Z,96.29
2023-03-14T02:00:02.116Z,95.78
2023-03-14T02:02:31.880Z,94.56
2023-03-14T02:05:02.019Z,94.32
2023-03-14T02:07:38.906Z,94.62
2023-03-14T02:10:14.077Z,94.09
2023-03-14T02:12:42.937Z,94.02
2023-03-14T02:15:22.234Z,93.60
2023-03-14T02:18:00.132Z,91.41
2023-03-14T02:21:04.928Z,92.32
2023-03-14T02:23:41.590Z,92.03
2023-03-14T02:26:13.773Z,91.85
2023-03-14T02:28:44.173Z,92.39
2023-03-14T02:31:13.059Z,92.71
2023-03-14T02:33:41.684Z,92.43
2023-03-14T02:36:13.392Z,93.23
2023-03-14T02:38:46.412Z,93.90
2023-03-14T02:41:15.139Z,93.78
2023-03-14T02:43:51.060Z,94.46
2023-03-14T02:46:21.459Z,94.02
2023-03-14T02:48:53.379Z,94.22
2023-03-14T02:51:22.518Z,94.36
2023-03-14T02:53:51.218Z,94.14
2023-03-14T02:56:20.177Z,94.29
2023-03-14T02:58:50.422Z,93.68
2023-03-14T03:01:41.905Z,94.33
2023-03-14T03:04:10.715Z,94.19
2023-03-14T03:06:40.165Z,94.06
2023-03-14T03:09:08.966Z,93.63
2023-03-14T03:11:37.871Z,93.16
2023-03-14T03:14:10.021Z,93.26
2023-03-14T03:16:38.752Z,92.78
2023-03-14T03:19:07.379Z,92.36
2023-03-14T03:21:35.982Z,91.70
2023-03-14T03:24:04.850Z,91.26
2023-03-14T03:26:36.567Z,89.74
2023-03-14T03:29:08.817Z,89.95
2023-03-14T03:31:39.531Z,89.41
2023-03-14T03:34:08.122Z,88.14
2023-03-14T03:36:37.122Z,88.25
2023-03-14T03:39:05.836Z,87.81
2023-03-14T03:41:34.986Z,86.84
2023-03-14T03:44:04.504Z,86.55
2023-03-14T03:46:35.465Z,85.91
2023-03-14T03:49:04.481Z,86.36
2023-03-14T03:51:33.636Z,85.10
2023-03-14T03:54:02.329Z,84.66
2023-03-14T03:56:34.554Z,84.54
2023-03-14T03:59:03.173Z,84.43
2023-03-14T04:01:31.722Z,83.66
2023-03-14T04:04:03.411Z,82.70
2023-03-14T04:06:32.688Z,83.48
2023-03-14T04:09:02.936Z,82.79
2023-03-14T04:12:00.969Z,82.55
2023-03-14T04:14:39.202Z,81.16
2023-03-14T04:17:14.206Z,81.44
2023-03-14T04:19:44.415Z,80.73
2023-03-14T04:22:14.005Z,81.16
2023-03-14T04:24:51.785Z,80.08
2023-03-14T04:27:22.159Z,80.13
2023-03-14T04:29:51.278Z,80.62
2023-03-14T04:32:26.107Z,80.02
2023-03-14T04:34:56.416Z,80.53
2023-03-14T04:37:25.329Z,80.45
2023-03-14T04:39:53.950Z,80.50
2023-03-14T04:42:28.493Z,80.76
2023-03-14T04:44:57.289Z,80.20
2023-03-14T04:47:28.317Z,80.90
2023-03-14T04:49:58.748Z,80.03
2023-03-14T04:52:28.375Z,79.62
2023-03-14T04:54:57.870Z,79.59
2023-03-14T04:57:28.510Z,79.39
2023-03-14T04:59:57.999Z,79.51
2023-03-14T05:02:43.170Z,79.72
2023-03-14T05:05:31.633Z,79.10
2023-03-14T05:08:08.685Z,79.75
2023-03-14T05:10:56.860Z,78.85
2023-03-14T05:13:57.600Z,79.82
2023-03-14T05:16:41.303Z,80.06
2023-03-14T05:19:30.446Z,81.33
2023-03-14T05:22:29.332Z,80.83
2023-03-14T05:25:18.449Z,81.23
2023-03-14T05:28:04.025Z,80.74
2023-03-14T05:30:50.846Z,81.73
2023-03-14T05:33:43.385Z,81.87
2023-03-14T05:36:32.938Z,81.68
2023-03-14T05:39:32.173Z,81.34
2023-03-14T05:42:19.783Z,81.64
2023-03-14T05:45:17.886Z,81.57
2023-03-14T05:48:01.405Z,81.05
2023-03-14T05:50:45.271Z,81.16
2023-03-14T05:53:36.786Z,81.19
2023-03-14T05:56:25.653Z,80.76
2023-03-14T05:59:14.628Z,80.85
2023-03-14T06:01:56.928Z,80.53
2023-03-14T06:04:29.012Z,80.62
2023-03-14T06:07:01.503Z,80.22
2023-03-14T06:09:30.424Z,79.96
2023-03-14T06:12:07.848Z,79.59
2023-03-14T06:14:42.541Z,79.23
2023-03-14T06:17:11.265Z,80.12
2023-03-14T06:19:51.423Z,79.76
2023-03-14T06:22:20.611Z,80.20
2023-03-14T06:24:49.630Z,79.09
2023-03-14T06:27:20.974Z,79.02
2023-03-14T06:29:50.797Z,79.69
2023-03-14T06:32:20.355Z,78.30
2023-03-14T06:34:51.251Z,78.44
2023-03-14T06:37:21.217Z,78.13
2023-03-14T06:39:50.961Z,78.46
2023-03-14T06:42:33.369Z,78.43
2023-03-14T06:45:05.193Z,78.39
2023-03-14T06:47:33.862Z,78.51
2023-03-14T06:50:02.729Z,78.41
2023-03-14T06:52:32.683Z,78.26
2023-03-14T06:55:01.574Z,77.88
2023-03-14T06:57:31.707Z,78.71
2023-03-14T07:00:00.486Z,77.94
2023-03-14T07:02:41.902Z,77.22
2023-03-14T07:05:20.366Z,76.79
2023-03-14T07:07:49.249Z,77.24
2023-03-14T07:10:19.587Z,76.32
2023-03-14T07:12:50.078Z,75.32
2023-03-14T07:15:19.809Z,75.70
2023-03-14T07:17:53.606Z,75.23
2023-03-14T07:20:24.712Z,75.31
2023-03-14T07:22:54.019Z,74.58
2023-03-14T07:25:32.999Z,74.15
2023-03-14T07:28:02.922Z,74.69
2023-03-14T07:30:32.088Z,74.57
2023-03-14T07:33:02.787Z,73.15
2023-03-14T07:35:31.800Z,72.89
2023-03-14T07:38:00.542Z,73.08
2023-03-14T07:40:36.946Z,72.88
2023-03-14T07:43:08.839Z,72.35
2023-03-14T07:45:59.158Z,72.45
2023-03-14T07:48:28.520Z,72.22
2023-03-14T07:50:58.225Z,71.38
2023-03-14T07:53:27.810Z,71.33
2023-03-14T07:55:57.182Z,70.83
2023-03-14T07:58:27.590Z,71.01
2023-03-14T08:00:56.483Z,70.21
2023-03-14T08:03:25.203Z,69.90
2023-03-14T08:05:54.301Z,69.62
2023-03-14T08:08:22.891Z,69.84
2023-03-14T08:10:51.659Z,70.42
2023-03-14T08:13:22.369Z,69.67
2023-03-14T08:15:53.110Z,69.84
2023-03-14T08:18:21.876Z,68.87
2023-03-14T08:20:50.540Z,68.24
2023-03-14T08:23:19.172Z,68.04
2023-03-14T08:25:47.820Z,67.39
2023-03-14T08:28:16.495Z,66.65
2023-03-14T08:30:47.653Z,68.12
2023-03-14T08:33:17.931Z,65.50
2023-03-14T08:35:46.514Z,65.48
2023-03-14T08:38:15.375Z,65.46
2023-03-14T08:40:43.948Z,64.15
2023-03-14T08:43:12.802Z,65.54
2023-03-14T08:45:43.886Z,63.86
2023-03-14T08:48:12.567Z,63.50
2023-03-14T08:50:42.698Z,63.11
2023-03-14T08:53:11.396Z,63.19
2023-03-14T08:55:40.083Z,63.69
2023-03-14T08:58:08.856Z,64.23
2023-03-14T09:00:37.599Z,62.72
2023-03-14T09:03:06.427Z,63.36
2023-03-14T09:05:36.095Z,62.16
2023-03-14T09:08:06.543Z,62.73
2023-03-14T09:10:35.229Z,62.90
2023-03-14T09:13:03.998Z,62.64
2023-03-14T09:15:32.900Z,63.83
2023-03-14T09:18:02.000Z,63.81
2023-03-14T09:20:30.805Z,64.75
2023-03-14T09:22:59.448Z,64.50
2023-03-14T09:25:29.483Z,65.02
2023-03-14T09:27:58.105Z,66.57
2023-03-14T09:30:26.838Z,67.05
2023-03-14T09:32:55.652Z,66.95
2023-03-14T09:35:24.391Z,67.37
2023-03-14T09:37:53.238Z,67.44
2023-03-14T09:40:23.884Z,66.06
2023-03-14T09:42:55.192Z,66.50
2023-03-14T09:45:28.256Z,66.94
2023-03-14T09:47:59.924Z,66.58
2023-03-14T09:50:34.964Z,66.84
2023-03-14T09:53:04.416Z,67.12
2023-03-14T09:55:35.511Z,66.72
2023-03-14T09:58:13.465Z,66.76
2023-03-14T10:00:42.490Z,66.05
2023-03-14T10:03:24.476Z,65.93
2023-03-14T10:05:53.619Z,65.33
2023-03-14T10:08:22.424Z,66.06
2023-03-14T10:10:51.180Z,66.83
2023-03-14T10:13:26.968Z,66.03
2023-03-14T10:15:56.999Z,65.43
2023-03-14T10:18:29.119Z,65.14
2023-03-14T10:21:07.992Z,65.88
2023-03-14T10:23:37.677Z,64.65
2023-03-14T10:26:11.224Z,64.89
2023-03-14T10:28:46.565Z,63.71
2023-03-14T10:31:16.224Z,63.75
2023-03-14T10:33:47.688Z,62.35
2023-03-14T10:36:22.958Z,62.20
2023-03-14T10:38:51.589Z,61.87
2023-03-14T10:41:25.252Z,62.66
2023-03-14T10:43:58.199Z,62.36
2023-03-14T10:46:28.233Z,62.05
2023-03-14T10:49:28.884Z,62.68
2023-03-14T10:52:03.158Z,61.55
2023-03-14T10:54:33.210Z,61.80
2023-03-14T10:57:03.101Z,61.56
2023-03-14T10:59:41.188Z,62.01
2023-03-14T11:02:27.777Z,62.28
2023-03-14T11:05:05.473Z,62.27
2023-03-14T11:07:38.555Z,62.43
2023-03-14T11:10:20.009Z,62.62
2023-03-14T11:12:56.724Z,63.00
2023-03-14T11:15:30.053Z,64.34
2023-03-14T11:18:19.570Z,64.29
2023-03-14T11:20:51.341Z,64.65
2023-03-14T11:23:23.592Z,66.21
2023-03-14T11:25:59.384Z,67.03
2023-03-14T11:28:35.440Z,70.25
2023-03-14T11:31:14.480Z,70.99
2023-03-14T11:33:49.947Z,72.20
2023-03-14T11:36:22.656Z,73.67
2023-03-14T11:38:52.622Z,72.64
2023-03-14T11:41:25.096Z,75.10
2023-03-14T11:43:56.985Z,76.07
2023-03-14T11:46:30.343Z,74.49
2023-03-14T11:49:03.836Z,72.98
2023-03-14T11:51:36.520Z,72.35
2023-03-14T11:54:10.713Z,74.08
2023-03-14T11:56:44.768Z,73.95
2023-03-14T11:59:18.183Z,73.67
2023-03-14T12:01:58.765Z,75.44
2023-03-14T12:04:48.029Z,77.74
2023-03-14T12:07:21.751Z,75.32
2023-03-14T12:09:51.541Z,75.99
2023-03-14T12:12:22.290Z,76.24
2023-03-14T12:14:56.880Z,76.90
2023-03-14T12:17:29.945Z,75.43
2023-03-14T12:20:08.116Z,76.75
2023-03-14T12:22:38.741Z,78.44
2023-03-14T12:25:15.874Z,77.73
2023-03-14T12:27:51.320Z,80.08
2023-03-14T12:30:30.471Z,76.82
2023-03-14T12:33:29.211Z,76.91
2023-03-14T12:36:05.767Z,77.33
2023-03-14T12:38:50.944Z,73.63
2023-03-14T12:41:22.668Z,70.86
2023-03-14T12:43:51.354Z,67.33
2023-03-14T12:46:25.569Z,64.93
2023-03-14T12:49:05.145Z,65.13
2023-03-14T12:51:38.280Z,63.69
2023-03-14T12:54:23.587Z,62.53
2023-03-14T12:57:09.172Z,59.79
2023-03-14T12:59:38.543Z,57.79
2023-03-14T13:02:29.360Z,56.97
2023-03-14T13:05:12.115Z,54.80
2023-03-14T13:08:07.659Z,51.76
2023-03-14T13:10:45.087Z,50.53
2023-03-14T13:13:22.658Z,49.89
2023-03-14T13:15:58.762Z,50.09
2023-03-14T13:18:31.975Z,50.76
2023-03-14T13:21:07.879Z,49.50
2023-03-14T13:23:39.047Z,49.09
2023-03-14T13:26:13.452Z,49.42
2023-03-14T13:28:43.105Z,49.34
2023-03-14T13:31:21.449Z,47.43
2023-03-14T13:33:58.353Z,46.94
2023-03-14T13:36:28.547Z,46.30
2023-03-14T13:39:02.520Z,47.02
2023-03-14T13:41:31.700Z,47.61
2023-03-14T13:44:05.914Z,47.34
2023-03-14T13:46:36.576Z,46.31
2023-03-14T13:49:06.565Z,46.04
2023-03-14T13:51:36.719Z,46.20
2023-03-14T13:54:05.444Z,47.34
2023-03-14T13:56:35.160Z,47.54
2023-03-14T13:59:03.849Z,47.48
2023-03-14T14:01:34.037Z,45.75
2023-03-14T14:04:09.190Z,44.85
2023-03-14T14:06:40.382Z,44.44
2023-03-14T14:09:14.584Z,45.30
2023-03-14T14:11:56.482Z,44.84
2023-03-14T14:14:35.821Z,44.09
2023-03-14T14:17:06.877Z,43.31
2023-03-14T14:19:36.937Z,42.06
2023-03-14T14:22:07.749Z,42.36
2023-03-14T14:24:37.237Z,41.95
2023-03-14T14:27:14.418Z,43.86
2023-03-14T14:29:43.342Z,42.91
2023-03-14T14:32:15.064Z,44.12
2023-03-14T14:34:50.713Z,44.71
2023-03-14T14:37:27.826Z,45.09
2023-03-14T14:39:58.800Z,44.66
2023-03-14T14:42:30.078Z,43.78
2023-03-14T14:44:59.689Z,45.12
2023-03-14T14:47:30.335Z,44.16
2023-03-14T14:50:06.844Z,44.75
2023-03-14T14:52:42.405Z,44.22
2023-03-14T14:55:15.797Z,45.26
2023-03-14T14:57:51.937Z,44.78
2023-03-14T15:00:22.646Z,45.95
2023-03-14T15:02:54.913Z,45.58
2023-03-14T15:05:25.947Z,44.15
2023-03-14T15:07:56.405Z,44.61
2023-03-14T15:10:26.937Z,45.11
2023-03-14T15:12:55.960Z,45.33
2023-03-14T15:15:24.711Z,44.65
2023-03-14T15:17:53.437Z,43.54
2023-03-14T15:20:24.622Z,43.85
2023-03-14T15:22:54.847Z,44.59
2023-03-14T15:25:47.343Z,43.96
2023-03-14T15:28:21.820Z,42.38
2023-03-14T15:30:51.951Z,41.14
2023-03-14T15:33:21.430Z,42.43
2023-03-14T15:35:50.943Z,43.00
2023-03-14T15:38:23.895Z,42.24
2023-03-14T15:40:53.413Z,42.63
2023-03-14T15:43:22.646Z,43.01
2023-03-14T15:45:52.123Z,43.35
2023-03-14T15:48:22.290Z,41.66
2023-03-14T15:50:51.070Z,42.18
2023-03-14T15:53:22.462Z,43.03
2023-03-14T15:55:51.864Z,43.17
2023-03-14T15:58:22.324Z,44.46
2023-03-14T16:00:51.629Z,44.25
2023-03-14T16:03:20.489Z,44.35
2023-03-14T16:05:49.544Z,44.14
2023-03-14T16:08:20.736Z,44.51
2023-03-14T16:10:49.735Z,43.58
2023-03-14T16:13:18.379Z,43.40
2023-03-14T16:15:56.413Z,43.62
2023-03-14T16:18:25.397Z,43.65
2023-03-14T16:20:55.774Z,43.43
2023-03-14T16:23:26.674Z,43.52
2023-03-14T16:25:55.963Z,43.43
2023-03-14T16:28:25.107Z,44.44
2023-03-14T16:30:55.220Z,44.97
2023-03-14T16:33:25.688Z,45.54
2023-03-14T16:35:57.938Z,45.62
2023-03-14T16:41:18.250Z,46.39
2023-03-14T16:43:52.077Z,46.86
2023-03-14T16:46:22.755Z,47.04
2023-03-14T16:48:51.872Z,47.05
2023-03-14T16:51:20.723Z,47.02
2023-03-14T16:53:51.005Z,46.79
2023-03-14T16:56:19.798Z,47.73
2023-03-14T16:58:48.701Z,46.93
2023-03-14T17:01:18.982Z,48.18
2023-03-14T17:03:49.427Z,48.63
2023-03-14T17:06:19.683Z,49.20
2023-03-14T17:08:48.302Z,48.87
2023-03-14T17:11:19.400Z,52.16
2023-03-14T17:13:48.082Z,54.43
2023-03-14T17:16:16.956Z,56.66
2023-03-14T17:18:45.879Z,58.74
2023-03-14T17:21:14.620Z,60.52
2023-03-14T17:23:43.323Z,61.45
2023-03-14T17:26:13.058Z,62.79
2023-03-14T17:28:43.189Z,63.55
2023-03-14T17:31:15.365Z,63.36
2023-03-14T17:33:44.197Z,63.60
2023-03-14T17:36:14.046Z,63.86
2023-03-14T17:38:43.079Z,63.86
2023-03-14T17:41:13.213Z,64.33
2023-03-14T17:43:43.931Z,64.91
2023-03-14T17:46:14.912Z,65.14
2023-03-14T17:48:44.645Z,65.16
2023-03-14T17:51:13.969Z,65.87
2023-03-14T17:53:43.000Z,66.02
2023-03-14T17:56:12.761Z,66.61
2023-03-14T17:58:44.245Z,67.33
2023-03-14T18:01:14.635Z,68.03
2023-03-14T18:03:45.812Z,68.78
2023-03-14T18:06:16.276Z,68.57
2023-03-14T18:08:46.574Z,67.68
2023-03-14T18:11:15.666Z,67.90
2023-03-14T18:13:46.104Z,68.31
2023-03-14T18:16:16.088Z,67.80
2023-03-14T18:18:48.355Z,71.22
2023-03-14T18:21:17.569Z,73.81
2023-03-14T18:23:48.272Z,74.37
2023-03-14T18:26:17.148Z,75.38
2023-03-14T18:28:47.353Z,73.86
2023-03-14T18:31:19.030Z,72.62
2023-03-14T18:33:48.928Z,73.08
2023-03-14T18:36:18.105Z,73.55
2023-03-14T18:38:48.511Z,73.57
2023-03-14T18:41:18.900Z,74.34
2023-03-14T18:43:48.989Z,74.17
2023-03-14T18:46:17.808Z,74.07
2023-03-14T18:48:46.692Z,74.40
2023-03-14T18:51:17.189Z,74.50
2023-03-14T18:53:47.410Z,74.62
2023-03-14T18:56:17.296Z,73.59
2023-03-14T18:58:46.323Z,70.74
2023-03-14T19:01:17.748Z,70.82
2023-03-14T19:03:47.518Z,70.06
2023-03-14T19:06:16.613Z,70.40
2023-03-14T19:08:45.300Z,69.06
2023-03-14T19:11:15.348Z,68.78
2023-03-14T19:13:44.508Z,68.18
2023-03-14T19:16:15.615Z,68.64
2023-03-14T19:18:44.687Z,68.82
2023-03-14T19:21:14.429Z,68.36
2023-03-14T19:23:48.860Z,68.64
2023-03-14T19:26:18.582Z,68.41
2023-03-14T19:28:47.690Z,67.90
2023-03-14T19:31:18.066Z,67.19
2023-03-14T19:33:47.433Z,67.32
2023-03-14T19:36:29.650Z,68.27
2023-03-14T19:38:58.601Z,67.89
2023-03-14T19:41:27.583Z,68.30
2023-03-14T19:43:56.955Z,68.65
2023-03-14T19:46:27.495Z,68.70
2023-03-14T19:48:56.102Z,69.13
2023-03-14T19:51:25.087Z,69.38
2023-03-14T19:53:54.709Z,69.70
2023-03-14T19:56:24.348Z,69.52
2023-03-14T19:58:53.479Z,69.33
2023-03-14T20:01:24.274Z,69.42
2023-03-14T20:03:54.418Z,69.27
2023-03-14T20:06:24.303Z,69.47
2023-03-14T20:08:53.069Z,69.24
2023-03-14T20:11:21.782Z,69.39
2023-03-14T20:13:50.479Z,69.77
2023-03-14T20:16:19.261Z,69.36
2023-03-14T20:18:47.881Z,69.10
2023-03-14T20:21:18.091Z,69.00
2023-03-14T20:23:46.717Z,68.97
2023-03-14T20:26:15.317Z,69.05
2023-03-14T20:28:45.412Z,69.13
2023-03-14T20:31:15.183Z,69.00
2023-03-14T20:33:44.168Z,69.33
2023-03-14T20:36:13.074Z,69.65
2023-03-14T20:38:43.403Z,69.47
2023-03-14T20:41:12.176Z,69.68
2023-03-14T20:43:41.188Z,69.29
2023-03-14T20:46:12.843Z,69.80
2023-03-14T20:48:41.703Z,69.75
2023-03-14T20:51:12.345Z,69.87
2023-03-14T20:53:42.799Z,69.93
2023-03-14T20:56:11.605Z,68.92
2023-03-14T20:58:41.172Z,68.73
2023-03-14T21:01:12.030Z,69.10
2023-03-14T21:03:41.777Z,68.44
2023-03-14T21:06:11.245Z,68.65
2023-03-14T21:08:41.487Z,68.88
2023-03-14T21:11:11.614Z,68.83
2023-03-14T21:13:40.301Z,68.68
2023-03-14T21:16:09.724Z,68.92
2023-03-14T21:18:38.801Z,69.30
2023-03-14T21:21:07.946Z,69.16
2023-03-14T21:23:38.818Z,68.35
2023-03-14T21:26:07.563Z,69.03
2023-03-14T21:28:37.624Z,69.03
2023-03-14T21:31:07.294Z,68.33
2023-03-14T21:33:36.363Z,68.68
2023-03-14T21:36:05.352Z,69.50
2023-03-14T21:38:34.359Z,69.32
2023-03-14T21:41:03.177Z,70.04
2023-03-14T21:43:32.392Z,70.79
2023-03-14T21:46:02.407Z,70.85
2023-03-14T21:48:32.070Z,72.42
2023-03-14T21:51:00.727Z,72.51
2023-03-14T21:53:29.898Z,72.95
2023-03-14T21:55:59.476Z,73.73
2023-03-14T21:58:28.273Z,75.48
2023-03-14T22:01:06.318Z,76.16
2023-03-14T22:03:35.336Z,76.25
2023-03-14T22:06:04.813Z,77.03
2023-03-14T22:08:33.514Z,77.15
2023-03-14T22:11:02.191Z,77.30
2023-03-14T22:13:30.740Z,77.26
2023-03-14T22:15:59.503Z,77.66
2023-03-14T22:18:30.254Z,77.07
2023-03-14T22:20:59.678Z,77.31
2023-03-14T22:23:28.304Z,77.52
2023-03-14T22:25:57.074Z,77.46
2023-03-14T22:28:25.857Z,77.89
2023-03-14T22:30:54.520Z,80.27
2023-03-14T22:33:23.470Z,82.30
2023-03-14T22:35:54.499Z,83.43
2023-03-14T22:38:23.261Z,84.67
2023-03-14T22:40:51.934Z,84.31
2023-03-14T22:43:20.731Z,85.11
2023-03-14T22:45:49.708Z,86.10
2023-03-14T22:48:19.660Z,87.06
2023-03-14T22:50:48.927Z,86.57
2023-03-14T22:53:19.176Z,87.15
2023-03-14T22:55:47.984Z,87.77
2023-03-14T22:58:17.278Z,87.27
2023-03-14T23:00:46.312Z,87.58
2023-03-14T23:03:15.048Z,86.52
2023-03-14T23:05:43.688Z,86.96
2023-03-14T23:08:12.511Z,87.38
2023-03-14T23:10:43.206Z,87.31
2023-03-14T23:13:14.464Z,88.13
2023-03-14T23:15:45.474Z,87.40
2023-03-14T23:18:14.645Z,87.47
2023-03-14T23:20:43.463Z,88.33
2023-03-14T23:23:13.653Z,88.53
2023-03-14T23:25:53.538Z,87.79
2023-03-14T23:28:23.064Z,87.81
2023-03-14T23:30:56.183Z,88.66
2023-03-14T23:33:25.337Z,88.89
2023-03-14T23:35:55.471Z,87.76
2023-03-14T23:38:25.926Z,88.34
2023-03-14T23:40:56.142Z,87.96
2023-03-14T23:43:24.866Z,88.31
2023-03-14T23:45:54.777Z,87.18
2023-03-14T23:48:25.880Z,88.21
2023-03-14T23:50:56.336Z,88.63
2023-03-14T23:53:25.857Z,88.39
2023-03-14T23:55:56.152Z,88.60
2023-03-14T23:58:25.850Z,88.56
